Jackie Cenac — WDG9141 — position and weather

sailwx.info

Track history (hours):
 
Tides and Currents Weather Stations Pressure Air Temp Water Temp Dewpoint Dewpoint Depression Visibility Wind Speed Wind Dir Waves Ship Positions

Jackie Cenac

Owner: Cenac Marine Services, Houma, LA. More information available from US FCC via Universal Licensing System and Coast Guard Vessel Documentation Center.

Last reported at 2018-Feb-17 17:32 UTC. Time now 2018-Feb-17 21:09 UTC.
Position N 29°34' W 094°55'.

Length 22 m; draft 3.3 m.

Type: Tug. MMSI: 367584740.

Date/timePositionNaut miles runAvg speedWind from/ knotsBaromVisibWave heightAir tempDewpointWater temp
2018-Feb-17 17:32N 29°34' W 094°55'1 7.6
2018-Feb-17 17:28N 29°34' W 094°55'3 7.2
2018-Feb-17 16:59N 29°37' W 094°58'3 5.7
2018-Feb-17 16:26N 29°37' W 095°01'0 0.1
2018-Feb-17 13:51N 29°37' W 095°01'0 0.0
2018-Feb-17 09:06N 29°37' W 095°02'0 0.0
2018-Feb-17 09:00N 29°37' W 095°02'0 0.0
2018-Feb-17 07:36N 29°37' W 095°02'0 0.0
2018-Feb-17 06:18N 29°37' W 095°02'0 0.0
2018-Feb-17 02:52N 29°37' W 095°02'0 0.1
2018-Feb-17 02:30N 29°37' W 095°02'0 0.1
2018-Feb-17 01:59N 29°37' W 095°02'0 0.0
2018-Feb-16 17:49N 29°37' W 095°01'0 0.0
2018-Feb-16 17:25N 29°37' W 095°01'0 0.0
2018-Feb-16 16:52N 29°37' W 095°01'0 0.0
2018-Feb-16 14:35N 29°37' W 095°01'  
2018-Feb-08 22:30N 29°46' W 094°02'3 5.8
2018-Feb-08 22:00N 29°48' W 094°00'2 4.6
2018-Feb-08 21:30N 29°49' W 093°58'1 2.5
2018-Feb-08 21:00N 29°51' W 093°57'3 3.4
2018-Feb-08 20:00N 29°53' W 093°55'3 6.0
2018-Feb-08 19:30N 29°56' W 093°53'3 5.9
2018-Feb-08 19:00N 29°58' W 093°51'3 5.6
2018-Feb-08 18:30N 29°59' W 093°48'80 4.3
2018-Feb-07 23:45N 29°49' W 092°17'1 4.7
2018-Feb-07 23:29N 29°48' W 092°15'2 4.7
2018-Feb-07 22:59N 29°47' W 092°13'2 4.0
2018-Feb-07 22:27N 29°47' W 092°10'2 5.0
2018-Feb-07 21:57N 29°47' W 092°08'  
Track history (hours):
 
Tides and Currents Weather Stations Pressure Air Temp Water Temp Dewpoint Dewpoint Depression Visibility Wind Speed Wind Dir Waves Ship Positions

Jackie Cenac

Owner: Cenac Marine Services, Houma, LA. More information available from US FCC via Universal Licensing System and Coast Guard Vessel Documentation Center.

Last reported at 2018-Feb-17 17:32 UTC. Time now 2018-Feb-17 21:09 UTC.
Position N 29°34' W 094°55'.

Length 22 m; draft 3.3 m.

Type: Tug. MMSI: 367584740.

Date/timePositionNaut miles runAvg speedWind from/ knotsBaromVisibWave heightAir tempDewpointWater temp
2018-Feb-17 17:32N 29°34' W 094°55'1 7.6
2018-Feb-17 17:28N 29°34' W 094°55'3 7.2
2018-Feb-17 16:59N 29°37' W 094°58'3 5.7
2018-Feb-17 16:26N 29°37' W 095°01'0 0.1
2018-Feb-17 13:51N 29°37' W 095°01'0 0.0
2018-Feb-17 09:06N 29°37' W 095°02'0 0.0
2018-Feb-17 09:00N 29°37' W 095°02'0 0.0
2018-Feb-17 07:36N 29°37' W 095°02'0 0.0
2018-Feb-17 06:18N 29°37' W 095°02'0 0.0
2018-Feb-17 02:52N 29°37' W 095°02'0 0.1
2018-Feb-17 02:30N 29°37' W 095°02'0 0.1
2018-Feb-17 01:59N 29°37' W 095°02'0 0.0
2018-Feb-16 17:49N 29°37' W 095°01'0 0.0
2018-Feb-16 17:25N 29°37' W 095°01'0 0.0
2018-Feb-16 16:52N 29°37' W 095°01'0 0.0
2018-Feb-16 14:35N 29°37' W 095°01'  
2018-Feb-08 22:30N 29°46' W 094°02'3 5.8
2018-Feb-08 22:00N 29°48' W 094°00'2 4.6
2018-Feb-08 21:30N 29°49' W 093°58'1 2.5
2018-Feb-08 21:00N 29°51' W 093°57'3 3.4
2018-Feb-08 20:00N 29°53' W 093°55'3 6.0
2018-Feb-08 19:30N 29°56' W 093°53'3 5.9
2018-Feb-08 19:00N 29°58' W 093°51'3 5.6
2018-Feb-08 18:30N 29°59' W 093°48'80 4.3
2018-Feb-07 23:45N 29°49' W 092°17'1 4.7
2018-Feb-07 23:29N 29°48' W 092°15'2 4.7
2018-Feb-07 22:59N 29°47' W 092°13'2 4.0
2018-Feb-07 22:27N 29°47' W 092°10'2 5.0
2018-Feb-07 21:57N 29°47' W 092°08'  

Dump ship's entire track history